Time;durP1;ratioP1;P1;durP2;ratioP2;P2;SDS_P1;SDS_P2;PMS_P1;PMS_P2;Temp;Humidity;BMP_temperature;BMP_pressure;BME280_temperature;BME280_humidity;BME280_pressure;Samples;Min_cycle;Max_cycle;Signal;HPM_P1;HPM_P2
2022/05/13 00:01:07;;;;;;;13.23;9.82;;;18.80;99.90;;;;;;5055940;28;20023;-66
2022/05/13 00:03:35;;;;;;;9.23;8.25;;;18.90;99.90;;;;;;5047928;28;20036;-61
2022/05/13 00:06:02;;;;;;;7.80;6.82;;;19.00;99.90;;;;;;5046748;28;20025;-66
2022/05/13 00:08:29;;;;;;;8.73;7.32;;;19.00;99.90;;;;;;5047521;28;20506;-61
2022/05/13 00:10:58;;;;;;;10.35;7.47;;;19.00;99.90;;;;;;5047930;28;20395;-67
2022/05/13 00:13:25;;;;;;;10.73;8.15;;;19.00;99.90;;;;;;5046394;28;20021;-69
2022/05/13 00:15:52;;;;;;;10.05;8.98;;;19.00;99.90;;;;;;5050888;28;20051;-68
2022/05/13 00:18:20;;;;;;;11.10;9.32;;;19.00;99.90;;;;;;5049879;28;20025;-63
2022/05/13 00:20:47;;;;;;;10.63;8.98;;;19.10;99.90;;;;;;5044907;28;20145;-67
2022/05/13 00:23:14;;;;;;;9.02;8.13;;;19.00;99.90;;;;;;5049484;28;20025;-62
2022/05/13 00:25:41;;;;;;;10.55;8.52;;;19.00;99.90;;;;;;5050868;28;20071;-68
2022/05/13 00:28:10;;;;;;;10.00;9.00;;;19.00;99.90;;;;;;5055602;28;20438;-61
2022/05/13 00:30:40;;;;;;;11.75;10.48;;;19.00;99.90;;;;;;5048353;28;20100;-62
2022/05/13 00:33:09;;;;;;;13.27;11.32;;;19.00;99.90;;;;;;5050294;28;20428;-62
2022/05/13 00:35:38;;;;;;;11.93;9.00;;;19.10;99.90;;;;;;5044248;28;20100;-67
2022/05/13 00:38:05;;;;;;;10.23;8.18;;;19.10;99.90;;;;;;5051893;28;20049;-68
2022/05/13 00:40:33;;;;;;;8.10;7.30;;;19.10;99.90;;;;;;5048613;28;20040;-62
2022/05/13 00:43:06;;;;;;;8.40;6.97;;;19.10;99.90;;;;;;5051622;28;20024;-68
2022/05/13 00:45:34;;;;;;;10.43;8.13;;;19.20;99.90;;;;;;5053007;28;20017;-67
2022/05/13 00:48:04;;;;;;;9.85;7.38;;;19.10;99.90;;;;;;5052395;28;20028;-68
2022/05/13 00:50:37;;;;;;;8.80;7.68;;;19.10;99.90;;;;;;5045063;28;20052;-68
2022/05/13 00:53:04;;;;;;;7.85;7.10;;;19.20;99.90;;;;;;5050360;28;20497;-62
2022/05/13 00:55:39;;;;;;;8.35;7.18;;;19.10;99.90;;;;;;5050532;28;20040;-67
2022/05/13 00:58:10;;;;;;;10.95;8.90;;;19.10;99.90;;;;;;5049542;28;20383;-67
2022/05/13 01:00:37;;;;;;;8.15;7.35;;;19.20;99.90;;;;;;5048084;28;20049;-66
2022/05/13 01:03:07;;;;;;;10.05;8.30;;;19.20;99.90;;;;;;5049400;28;20028;-62
2022/05/13 01:05:37;;;;;;;10.70;9.10;;;19.30;99.90;;;;;;5051435;28;20074;-62
2022/05/13 01:08:09;;;;;;;13.48;12.07;;;19.30;99.90;;;;;;5049493;28;20056;-67
2022/05/13 01:10:38;;;;;;;9.50;8.52;;;19.40;99.90;;;;;;5049035;28;20195;-67
2022/05/13 01:13:09;;;;;;;9.55;8.00;;;19.50;99.90;;;;;;5046739;28;20064;-62
2022/05/13 01:15:41;;;;;;;8.38;7.50;;;19.60;99.90;;;;;;5047924;28;20472;-63
2022/05/13 01:18:10;;;;;;;10.13;8.90;;;19.80;99.90;;;;;;5051620;28;20475;-62
2022/05/13 01:20:47;;;;;;;8.77;7.18;;;20.00;99.90;;;;;;5051267;28;20021;-66
2022/05/13 01:23:27;;;;;;;12.80;10.90;;;20.20;99.90;;;;;;5049526;28;20025;-62
2022/05/13 01:25:58;;;;;;;8.73;7.82;;;20.20;99.90;;;;;;5050311;28;20078;-68
2022/05/13 01:28:44;;;;;;;8.88;7.15;;;20.30;99.90;;;;;;5054503;28;20024;-68
2022/05/13 01:31:15;;;;;;;9.70;7.72;;;20.50;99.90;;;;;;5042247;28;20043;-62
2022/05/13 01:33:42;;;;;;;8.55;7.55;;;20.60;99.90;;;;;;5047654;28;20414;-61
2022/05/13 01:36:12;;;;;;;8.60;7.80;;;20.80;99.90;;;;;;5049634;28;20040;-61
2022/05/13 01:38:41;;;;;;;9.10;8.20;;;20.90;99.90;;;;;;5046564;28;20048;-68
2022/05/13 01:41:10;;;;;;;10.27;9.38;;;21.10;99.90;;;;;;5045552;28;20029;-68
2022/05/13 01:43:39;;;;;;;9.45;7.15;;;21.20;99.90;;;;;;5049110;28;20075;-67
2022/05/13 01:46:06;;;;;;;8.40;7.22;;;21.60;99.90;;;;;;5049974;28;20021;-62
2022/05/13 01:48:34;;;;;;;7.82;7.10;;;21.80;99.90;;;;;;5045751;28;20036;-68
2022/05/13 01:51:01;;;;;;;6.82;6.13;;;21.80;99.90;;;;;;5044303;28;20029;-62
2022/05/13 01:53:29;;;;;;;8.07;7.28;;;22.00;99.90;;;;;;5049099;28;20059;-62
2022/05/13 01:55:57;;;;;;;6.53;5.53;;;22.10;99.90;;;;;;5049955;28;20033;-62
2022/05/13 01:58:25;;;;;;;5.15;4.65;;;22.10;99.90;;;;;;5049856;28;20017;-67
2022/05/13 02:00:55;;;;;;;5.30;4.53;;;22.20;99.90;;;;;;5048522;28;20537;-67
2022/05/13 02:06:09;;;;;;;3.97;3.38;;;22.30;99.90;;;;;;5049972;28;20521;-61
2022/05/13 02:08:36;;;;;;;5.13;3.55;;;22.40;99.90;;;;;;5045962;28;20029;-62
2022/05/13 02:11:03;;;;;;;4.68;3.30;;;22.50;99.90;;;;;;5047861;28;20028;-66
2022/05/13 02:13:30;;;;;;;4.60;3.63;;;22.50;99.90;;;;;;5049160;28;20025;-68
2022/05/13 02:15:57;;;;;;;5.20;4.43;;;22.40;99.90;;;;;;5049054;28;20112;-62
2022/05/13 02:18:25;;;;;;;3.83;3.25;;;22.50;99.90;;;;;;5047938;28;20025;-63
2022/05/13 02:20:52;;;;;;;3.50;3.15;;;22.40;99.90;;;;;;5042807;28;20028;-67
2022/05/13 02:23:20;;;;;;;3.50;3.20;;;22.40;99.90;;;;;;5046193;28;20246;-63
2022/05/13 02:25:48;;;;;;;3.38;2.70;;;22.40;99.90;;;;;;5047899;28;20067;-63
2022/05/13 02:28:16;;;;;;;4.70;3.42;;;22.20;99.90;;;;;;5045565;28;20048;-62
2022/05/13 02:30:43;;;;;;;8.55;6.05;;;22.20;99.90;;;;;;5045333;28;20075;-63
2022/05/13 02:33:10;;;;;;;4.13;3.60;;;22.10;99.90;;;;;;5047386;28;20033;-67
2022/05/13 02:35:37;;;;;;;4.70;3.50;;;22.10;99.90;;;;;;5047518;28;20444;-69
2022/05/13 02:38:04;;;;;;;4.82;3.35;;;22.30;99.90;;;;;;5042486;28;20037;-69
2022/05/13 02:43:16;;;;;;;4.38;3.55;;;22.20;99.90;;;;;;5051377;28;20392;-66
2022/05/13 02:45:43;;;;;;;3.30;3.00;;;22.30;99.90;;;;;;5049622;28;20024;-62
2022/05/13 02:48:10;;;;;;;3.92;3.47;;;22.30;99.90;;;;;;5048310;28;20052;-62
2022/05/13 02:50:39;;;;;;;4.38;3.45;;;22.30;99.90;;;;;;5048730;28;20085;-69
2022/05/13 02:53:07;;;;;;;4.60;3.47;;;22.30;99.90;;;;;;5048264;28;20024;-61
2022/05/13 02:55:34;;;;;;;3.58;3.17;;;22.40;99.90;;;;;;5051661;28;20029;-61
2022/05/13 02:58:02;;;;;;;3.80;3.40;;;22.40;99.90;;;;;;5048391;28;20025;-62
2022/05/13 03:00:29;;;;;;;4.75;3.35;;;22.40;99.90;;;;;;5047553;28;20604;-62
2022/05/13 03:02:56;;;;;;;3.88;3.05;;;22.40;99.90;;;;;;5048650;28;20013;-61
2022/05/13 03:05:24;;;;;;;5.03;3.70;;;22.40;99.90;;;;;;5047047;28;20056;-65
2022/05/13 03:07:52;;;;;;;5.10;3.20;;;22.50;99.90;;;;;;5048019;28;20100;-62
2022/05/13 03:10:19;;;;;;;4.18;2.53;;;22.50;99.90;;;;;;5048077;28;20434;-62
2022/05/13 03:12:46;;;;;;;4.13;3.30;;;22.40;99.90;;;;;;5045370;28;20033;-67
2022/05/13 03:15:14;;;;;;;3.53;2.90;;;22.40;99.90;;;;;;5049368;28;20456;-62
2022/05/13 03:17:41;;;;;;;4.45;3.53;;;22.40;99.90;;;;;;5045423;28;20009;-66
2022/05/13 03:20:12;;;;;;;4.90;3.65;;;22.40;99.90;;;;;;5048510;28;20031;-61
2022/05/13 03:22:39;;;;;;;5.70;3.30;;;22.40;99.90;;;;;;5048733;28;20044;-61
2022/05/13 03:25:06;;;;;;;4.60;3.50;;;22.30;99.90;;;;;;5051014;28;20096;-61
2022/05/13 03:27:33;;;;;;;3.85;3.40;;;22.20;99.90;;;;;;5048844;28;20041;-62
2022/05/13 03:30:00;;;;;;;3.45;3.03;;;22.20;99.90;;;;;;5049837;28;20028;-66
2022/05/13 03:32:27;;;;;;;3.88;2.85;;;22.30;99.90;;;;;;5049284;28;20100;-67
2022/05/13 03:34:54;;;;;;;3.58;3.10;;;22.30;99.90;;;;;;4349063;28;10000372;-60
2022/05/13 03:37:21;;;;;;;4.25;3.85;;;22.30;99.90;;;;;;5046711;28;20041;-66
2022/05/13 03:39:48;;;;;;;6.45;3.90;;;22.30;99.90;;;;;;5046453;28;20048;-61
2022/05/13 03:42:15;;;;;;;3.83;3.53;;;22.40;99.90;;;;;;5044796;28;20052;-67
2022/05/13 03:44:43;;;;;;;4.13;3.10;;;22.40;99.90;;;;;;5047427;28;20064;-67
2022/05/13 03:47:10;;;;;;;4.78;4.28;;;22.40;99.90;;;;;;5048411;28;20064;-61
2022/05/13 03:49:37;;;;;;;5.47;4.97;;;22.40;99.90;;;;;;5042635;28;20457;-61
2022/05/13 03:52:04;;;;;;;5.13;4.50;;;22.50;99.90;;;;;;5050077;28;20033;-64
2022/05/13 03:54:31;;;;;;;5.10;4.60;;;22.50;99.90;;;;;;5051229;28;20063;-62
2022/05/13 03:56:58;;;;;;;6.45;5.82;;;22.60;99.90;;;;;;5050109;28;20102;-65
2022/05/13 03:59:26;;;;;;;5.75;4.78;;;22.80;99.90;;;;;;5052558;28;20340;-65
2022/05/13 04:01:54;;;;;;;5.97;5.13;;;22.80;99.90;;;;;;5051923;28;20036;-68
2022/05/13 04:04:22;;;;;;;5.63;4.90;;;22.90;99.90;;;;;;5049662;28;20021;-68
2022/05/13 04:09:35;;;;;;;5.10;4.50;;;23.10;99.90;;;;;;5047338;28;20310;-69
2022/05/13 04:17:35;;;;;;;6.47;4.13;;;23.80;99.90;;;;;;5049223;28;20027;-62
2022/05/13 04:20:06;;;;;;;3.58;3.22;;;23.90;99.90;;;;;;5050583;28;20475;-67
2022/05/13 04:22:36;;;;;;;4.35;2.70;;;23.90;99.90;;;;;;5050382;28;20060;-62
2022/05/13 04:25:04;;;;;;;6.28;4.00;;;23.90;99.90;;;;;;5049459;28;20025;-69
2022/05/13 04:27:31;;;;;;;5.65;3.63;;;24.00;99.90;;;;;;5053639;28;20025;-66
2022/05/13 04:29:58;;;;;;;5.38;3.95;;;24.10;99.90;;;;;;5050090;28;20302;-65
2022/05/13 04:32:25;;;;;;;7.68;3.53;;;24.20;99.90;;;;;;5048384;28;20025;-61
2022/05/13 04:34:51;;;;;;;3.78;2.70;;;24.50;99.90;;;;;;5048189;28;20500;-67
2022/05/13 04:37:18;;;;;;;5.18;3.20;;;24.60;99.90;;;;;;5047095;28;20033;-67
2022/05/13 04:39:52;;;;;;;6.22;3.22;;;24.70;99.90;;;;;;5052354;28;20078;-66
2022/05/13 04:45:09;;;;;;;3.60;2.75;;;25.00;99.90;;;;;;5046596;28;20063;-67
2022/05/13 04:50:21;;;;;;;7.57;3.70;;;25.20;99.90;;;;;;5046593;28;20036;-65
2022/05/13 04:52:48;;;;;;;5.93;3.38;;;25.00;99.90;;;;;;5049901;28;20554;-62
2022/05/13 04:55:15;;;;;;;8.70;3.70;;;24.60;99.90;;;;;;5051373;28;20437;-66
2022/05/13 04:57:42;;;;;;;4.93;3.72;;;24.30;99.90;;;;;;5042185;28;20027;-66
2022/05/13 05:00:12;;;;;;;5.68;3.80;;;24.10;99.90;;;;;;5044664;28;20029;-62
2022/05/13 05:02:39;;;;;;;6.03;3.55;;;24.10;99.90;;;;;;5046653;28;20609;-66
2022/05/13 05:05:06;;;;;;;4.72;3.67;;;24.10;99.90;;;;;;5048250;28;20028;-65
2022/05/13 05:07:33;;;;;;;4.88;3.25;;;24.20;99.90;;;;;;5047281;28;20071;-67
2022/05/13 05:10:00;;;;;;;4.68;2.67;;;24.40;99.90;;;;;;5048214;28;20115;-62
2022/05/13 05:12:27;;;;;;;4.68;3.83;;;24.50;99.90;;;;;;5046756;28;20028;-62
2022/05/13 05:14:54;;;;;;;11.48;10.38;;;24.50;99.90;;;;;;5047548;28;20735;-66
2022/05/13 05:17:21;;;;;;;2.67;2.03;;;24.60;99.90;;;;;;5049418;28;20052;-62
2022/05/13 05:19:48;;;;;;;2.83;1.70;;;24.90;99.90;;;;;;5044567;28;20040;-63
2022/05/13 05:22:15;;;;;;;2.47;1.52;;;25.20;99.90;;;;;;5048817;28;20102;-66
2022/05/13 05:24:42;;;;;;;1.50;1.40;;;25.30;99.90;;;;;;5047200;28;20037;-63
2022/05/13 05:27:10;;;;;;;1.92;1.42;;;25.50;99.90;;;;;;5043561;28;20053;-66
2022/05/13 05:29:37;;;;;;;3.15;2.78;;;25.60;99.90;;;;;;5048501;28;20016;-63
2022/05/13 05:32:05;;;;;;;3.22;2.90;;;25.70;99.90;;;;;;5045755;28;20055;-64
2022/05/13 05:34:32;;;;;;;3.08;2.78;;;25.90;99.90;;;;;;5047675;28;20139;-63
2022/05/13 05:36:59;;;;;;;4.15;1.60;;;26.10;99.90;;;;;;5047175;28;20032;-63
2022/05/13 05:39:26;;;;;;;1.77;1.30;;;25.90;99.90;;;;;;5047923;28;20024;-63
2022/05/13 05:41:53;;;;;;;1.92;1.40;;;25.50;99.90;;;;;;5048803;28;20040;-63
2022/05/13 05:44:20;;;;;;;2.53;1.35;;;25.30;99.90;;;;;;5048703;28;20447;-63
2022/05/13 05:46:50;;;;;;;2.22;1.17;;;25.20;99.90;;;;;;5063038;28;20086;-66
2022/05/13 05:49:17;;;;;;;2.42;1.73;;;25.20;99.90;;;;;;5047493;28;20476;-63
2022/05/13 05:51:44;;;;;;;1.63;1.25;;;25.30;99.90;;;;;;5047457;28;20020;-62
2022/05/13 05:57:14;;;;;;;2.47;1.70;;;24.50;99.90;;;;;;5045889;28;20035;-65
2022/05/13 05:59:42;;;;;;;1.65;0.93;;;24.00;99.90;;;;;;5046901;28;20029;-62
2022/05/13 06:02:10;;;;;;;2.33;1.63;;;23.70;99.90;;;;;;5047261;28;20450;-66
2022/05/13 06:04:37;;;;;;;2.67;1.50;;;23.50;99.90;;;;;;5044179;28;20048;-66
2022/05/13 06:07:09;;;;;;;1.50;1.30;;;23.30;99.90;;;;;;5046465;28;20028;-66
2022/05/13 06:09:36;;;;;;;;;;;23.00;99.90;;;;;;5049802;28;20029;-66
2022/05/13 06:12:07;;;;;;;3.33;1.20;;;23.00;99.90;;;;;;5044724;28;19912;-61
2022/05/13 06:14:34;;;;;;;2.60;1.20;;;22.90;99.90;;;;;;5046007;28;20487;-68
2022/05/13 06:17:01;;;;;;;3.88;2.60;;;22.70;99.90;;;;;;5043133;28;20024;-61
2022/05/13 06:19:29;;;;;;;3.13;1.35;;;22.60;99.90;;;;;;5042829;28;20028;-64
2022/05/13 06:21:56;;;;;;;8.00;5.28;;;22.50;99.90;;;;;;5044380;28;20013;-64
2022/05/13 06:24:26;;;;;;;3.10;1.95;;;22.50;99.90;;;;;;5040061;28;20017;-66
2022/05/13 06:26:53;;;;;;;2.92;1.40;;;22.50;99.90;;;;;;5042514;28;20029;-65
2022/05/13 06:29:22;;;;;;;2.05;1.48;;;22.50;99.90;;;;;;5047072;28;20431;-62
2022/05/13 06:31:49;;;;;;;2.65;1.20;;;22.70;99.90;;;;;;5046686;28;20048;-64
2022/05/13 06:34:17;;;;;;;1.88;1.10;;;22.80;99.90;;;;;;5045156;28;20021;-60
2022/05/13 06:36:44;;;;;;;1.35;1.02;;;22.80;99.90;;;;;;5044035;28;20125;-69
2022/05/13 06:39:13;;;;;;;4.57;1.20;;;22.60;99.90;;;;;;5048429;28;20045;-61
2022/05/13 06:41:40;;;;;;;2.10;1.25;;;22.50;99.90;;;;;;5042819;28;20076;-61
2022/05/13 06:44:08;;;;;;;2.70;1.10;;;22.50;99.90;;;;;;5043570;28;20029;-65
2022/05/13 06:46:39;;;;;;;1.50;1.10;;;22.30;99.90;;;;;;5042116;28;20032;-69
2022/05/13 06:49:08;;;;;;;3.50;1.15;;;22.10;99.90;;;;;;5046687;28;20024;-67
2022/05/13 06:51:36;;;;;;;2.25;1.30;;;21.80;99.90;;;;;;5045115;28;20029;-68
2022/05/13 06:54:07;;;;;;;1.27;0.90;;;21.60;99.90;;;;;;5045583;28;20017;-68
2022/05/13 06:56:38;;;;;;;2.43;1.10;;;21.40;99.90;;;;;;5045464;28;20017;-68
2022/05/13 06:59:05;;;;;;;1.75;1.30;;;21.20;99.90;;;;;;5044400;28;20088;-68
2022/05/13 07:01:32;;;;;;;1.48;0.93;;;21.10;99.90;;;;;;5042614;28;20452;-68
2022/05/13 07:04:02;;;;;;;2.33;1.10;;;21.00;99.90;;;;;;5045388;28;20029;-68
2022/05/13 07:06:32;;;;;;;1.65;0.90;;;20.80;99.90;;;;;;5042621;28;20115;-67
2022/05/13 07:08:59;;;;;;;2.38;1.15;;;20.70;99.90;;;;;;5045329;28;20159;-68
2022/05/13 07:11:26;;;;;;;2.47;0.95;;;20.60;99.90;;;;;;5035502;28;20096;-68
2022/05/13 07:13:53;;;;;;;4.40;1.20;;;20.50;99.90;;;;;;5032346;28;20032;-69
2022/05/13 07:16:20;;;;;;;2.45;1.13;;;20.40;99.90;;;;;;5047456;28;20021;-70
2022/05/13 07:18:47;;;;;;;3.08;1.30;;;20.30;99.90;;;;;;5045580;28;20060;-68
2022/05/13 07:21:15;;;;;;;3.10;1.60;;;20.10;99.90;;;;;;5041969;28;20045;-68
2022/05/13 07:23:42;;;;;;;2.72;1.60;;;20.00;99.90;;;;;;5037794;28;20032;-69
2022/05/13 07:26:10;;;;;;;2.85;1.40;;;19.80;99.90;;;;;;5037987;28;20037;-67
2022/05/13 07:28:40;;;;;;;2.63;1.45;;;19.70;99.90;;;;;;5025583;28;20056;-67
2022/05/13 07:31:08;;;;;;;2.08;1.20;;;19.60;99.90;;;;;;5050427;28;20195;-70
2022/05/13 07:33:38;;;;;;;4.32;1.63;;;19.50;99.90;;;;;;5041359;28;20021;-69
2022/05/13 07:36:08;;;;;;;3.95;1.70;;;19.40;99.90;;;;;;5045695;28;20032;-66
2022/05/13 07:41:16;;;;;;;3.85;1.70;;;19.20;99.90;;;;;;5045313;28;20068;-68
2022/05/13 07:41:26;;;;;;;3.63;1.90;;;19.10;99.90;;;;;;5049574;28;20037;-69
2022/05/13 07:43:53;;;;;;;4.25;2.03;;;19.00;99.90;;;;;;5045473;28;20078;-67
2022/05/13 07:46:20;;;;;;;2.25;1.50;;;19.00;99.90;;;;;;5043612;28;20029;-69
2022/05/13 07:48:47;;;;;;;3.15;1.58;;;19.00;99.90;;;;;;5043039;28;20040;-67
2022/05/13 07:51:14;;;;;;;2.50;1.80;;;19.00;99.90;;;;;;5052990;28;20031;-68
2022/05/13 07:53:41;;;;;;;4.65;2.17;;;18.90;99.90;;;;;;5046075;28;20044;-68
2022/05/13 07:56:11;;;;;;;3.30;2.08;;;18.80;99.90;;;;;;5042874;28;20040;-67
2022/05/13 07:58:41;;;;;;;5.75;2.38;;;18.80;99.90;;;;;;5045818;28;20021;-70
2022/05/13 08:01:08;;;;;;;3.55;2.20;;;18.80;99.90;;;;;;5046060;28;20017;-66
2022/05/13 08:03:35;;;;;;;4.93;3.03;;;18.80;99.90;;;;;;5047457;28;20033;-69
2022/05/13 08:06:03;;;;;;;3.92;2.35;;;18.70;99.90;;;;;;5049063;28;20067;-68
2022/05/13 08:08:36;;;;;;;5.70;2.80;;;18.70;99.90;;;;;;5049943;28;20024;-68
2022/05/13 08:11:06;;;;;;;3.20;2.17;;;18.70;99.90;;;;;;5045374;28;20017;-68
2022/05/13 08:13:34;;;;;;;3.55;2.45;;;18.60;99.90;;;;;;5056642;28;20529;-66
2022/05/13 08:16:10;;;;;;;4.90;2.58;;;18.50;99.90;;;;;;5044531;28;20068;-66
2022/05/13 08:18:37;;;;;;;3.80;2.47;;;18.40;99.90;;;;;;5045102;28;20017;-72
2022/05/13 08:21:04;;;;;;;8.68;7.47;;;18.40;99.90;;;;;;5050803;28;20467;-66
2022/05/13 08:23:31;;;;;;;9.38;8.15;;;18.40;99.90;;;;;;5041330;28;20464;-68
2022/05/13 08:25:58;;;;;;;7.53;6.82;;;18.40;99.90;;;;;;5044942;28;20044;-67
2022/05/13 08:28:26;;;;;;;7.53;6.28;;;18.40;99.90;;;;;;5040658;28;20338;-67
2022/05/13 08:30:53;;;;;;;5.85;4.10;;;18.40;99.90;;;;;;5050861;28;20025;-66
2022/05/13 08:33:20;;;;;;;6.07;5.35;;;18.40;99.90;;;;;;5052789;28;20032;-69
2022/05/13 08:35:52;;;;;;;7.35;5.82;;;18.50;99.90;;;;;;5053064;28;20037;-73
2022/05/13 08:38:26;;;;;;;7.63;6.10;;;18.50;99.90;;;;;;5046842;28;20769;-67
2022/05/13 08:41:20;;;;;;;5.90;4.53;;;18.50;99.90;;;;;;5034973;28;20502;-72
2022/05/13 08:43:56;;;;;;;4.57;3.08;;;18.60;99.90;;;;;;5039103;28;20080;-68
2022/05/13 08:46:38;;;;;;;4.88;3.00;;;18.70;99.90;;;;;;5035656;28;20346;-70
2022/05/13 08:50:00;;;;;;;5.83;4.60;;;18.80;99.90;;;;;;5034550;28;20167;-67
2022/05/13 08:55:37;;;;;;;4.90;2.70;;;18.80;99.90;;;;;;4986474;28;20516;-73
2022/05/13 08:58:06;;;;;;;;;;;18.90;99.90;;;;;;4989384;28;20033;-70
2022/05/13 09:00:47;;;;;;;4.82;2.88;;;19.00;99.90;;;;;;4987685;28;19917;-74
2022/05/13 09:03:22;;;;;;;4.65;3.63;;;18.90;99.90;;;;;;4992376;28;20121;-74
2022/05/13 09:06:12;;;;;;;5.72;3.65;;;18.90;99.90;;;;;;4997893;28;20468;-69
2022/05/13 09:08:40;;;;;;;6.32;3.85;;;18.80;99.90;;;;;;4987461;28;20085;-68
2022/05/13 09:11:31;;;;;;;6.70;4.00;;;18.70;99.90;;;;;;4993305;28;20030;-69
2022/05/13 09:14:03;;;;;;;6.28;3.58;;;18.50;99.90;;;;;;4993117;28;20026;-68
2022/05/13 09:16:41;;;;;;;;;;;18.50;99.90;;;;;;4983554;28;20217;-68
2022/05/13 09:19:17;;;;;;;8.05;5.78;;;18.40;99.90;;;;;;4992673;28;19914;-72
2022/05/13 09:21:45;;;;;;;7.03;4.57;;;18.30;99.90;;;;;;4994739;28;20038;-75
2022/05/13 09:24:12;;;;;;;7.05;4.63;;;18.30;99.90;;;;;;4989141;28;20110;-72
2022/05/13 09:26:39;;;;;;;6.65;4.43;;;18.30;99.90;;;;;;4993472;28;20033;-70
2022/05/13 09:29:08;;;;;;;6.57;4.30;;;18.20;99.90;;;;;;5027619;28;20049;-69
2022/05/13 09:31:39;;;;;;;7.38;4.05;;;18.20;99.90;;;;;;5034849;28;20120;-69
2022/05/13 09:34:28;;;;;;;7.90;4.15;;;18.10;99.90;;;;;;5020690;28;20083;-69
2022/05/13 09:37:10;;;;;;;6.95;4.05;;;18.10;99.90;;;;;;5034080;28;20027;-70
2022/05/13 09:39:43;;;;;;;4.32;3.92;;;18.10;99.90;;;;;;5057985;28;20036;-72
2022/05/13 09:42:26;;;;;;;5.18;3.75;;;18.00;99.90;;;;;;5050601;28;20571;-72
2022/05/13 09:45:21;;;;;;;7.65;4.05;;;18.00;99.90;;;;;;5054123;28;20028;-72
2022/05/13 09:48:10;;;;;;;6.45;4.57;;;17.90;99.90;;;;;;5046716;28;20036;-70
2022/05/13 09:50:44;;;;;;;6.65;4.72;;;17.90;99.90;;;;;;5053774;28;20029;-70
2022/05/13 09:53:32;;;;;;;8.32;4.78;;;17.80;99.90;;;;;;5055147;28;20607;-71
2022/05/13 09:56:02;;;;;;;6.70;4.97;;;17.80;99.90;;;;;;5048735;28;20119;-70
2022/05/13 09:58:37;;;;;;;6.43;4.97;;;17.80;99.90;;;;;;5056114;28;20138;-71
2022/05/13 10:01:11;;;;;;;6.15;5.18;;;17.80;99.90;;;;;;5056006;28;20025;-70
2022/05/13 10:03:40;;;;;;;9.25;5.03;;;17.80;99.90;;;;;;5054712;28;20028;-71
2022/05/13 10:06:10;;;;;;;8.43;6.80;;;17.80;99.90;;;;;;5055168;28;20028;-72
2022/05/13 10:14:38;;;;;;;9.07;5.38;;;17.90;99.90;;;;;;5050412;28;20066;-70
2022/05/13 10:17:19;;;;;;;8.40;6.05;;;18.00;99.90;;;;;;5049258;28;20060;-71
2022/05/13 10:20:08;;;;;;;9.35;7.45;;;18.10;99.90;;;;;;5050420;28;20350;-70
2022/05/13 10:23:04;;;;;;;9.73;6.20;;;18.00;99.90;;;;;;5048572;28;20107;-70
2022/05/13 10:25:55;;;;;;;9.23;6.75;;;18.00;99.90;;;;;;5009421;28;20038;-70
2022/05/13 10:28:50;;;;;;;8.45;6.97;;;18.00;99.90;;;;;;4984364;28;20560;-69
2022/05/13 10:31:25;;;;;;;12.70;7.18;;;18.00;99.90;;;;;;4984574;28;20033;-73
2022/05/13 10:34:23;;;;;;;10.57;6.28;;;18.00;99.90;;;;;;4985059;28;20108;-71
2022/05/13 10:39:35;;;;;;;11.60;7.40;;;17.90;99.90;;;;;;5044635;28;20048;-70
2022/05/13 10:42:18;;;;;;;11.38;7.22;;;18.00;99.90;;;;;;5050617;28;20029;-70
2022/05/13 10:44:54;;;;;;;10.85;7.47;;;18.00;99.90;;;;;;5048361;28;20020;-70
2022/05/13 10:47:32;;;;;;;10.23;6.60;;;18.00;99.90;;;;;;5047557;28;20470;-72
2022/05/13 10:50:00;;;;;;;12.68;7.20;;;18.00;99.90;;;;;;5049404;28;20020;-72
2022/05/13 10:52:33;;;;;;;11.93;7.20;;;18.00;99.90;;;;;;5047254;28;20020;-75
2022/05/13 10:55:29;;;;;;;9.27;6.43;;;18.10;99.90;;;;;;5046879;28;20542;-74
2022/05/13 10:58:29;;;;;;;9.73;6.97;;;18.10;99.90;;;;;;5047901;28;20028;-74
2022/05/13 11:01:17;;;;;;;9.05;6.57;;;18.10;99.90;;;;;;4967290;28;20042;-73
2022/05/13 11:03:58;;;;;;;11.05;6.65;;;18.10;99.90;;;;;;4970543;28;20065;-74
2022/05/13 11:06:46;;;;;;;13.20;7.23;;;18.20;99.90;;;;;;4968529;28;20041;-74
2022/05/13 11:09:37;;;;;;;8.40;6.70;;;18.30;99.90;;;;;;4962503;28;20034;-69
2022/05/13 11:12:17;;;;;;;11.75;7.43;;;18.30;99.90;;;;;;4966090;28;20042;-70
2022/05/13 11:14:49;;;;;;;11.40;7.55;;;18.20;99.90;;;;;;4969169;28;20034;-74
2022/05/13 11:17:50;;;;;;;15.20;8.40;;;18.40;99.90;;;;;;4968424;28;20037;-69
2022/05/13 11:20:29;;;;;;;10.57;7.20;;;18.50;99.90;;;;;;4967413;28;20038;-75
2022/05/13 11:23:36;;;;;;;9.77;7.78;;;18.40;99.90;;;;;;4968395;28;20034;-74
2022/05/13 11:26:12;;;;;;;12.75;8.50;;;18.30;99.90;;;;;;4969451;28;20045;-73
2022/05/13 11:28:51;;;;;;;10.52;6.70;;;18.30;99.90;;;;;;4967217;28;20038;-68
2022/05/13 11:32:01;;;;;;;15.13;8.70;;;18.30;99.90;;;;;;4968167;28;20042;-73
2022/05/13 11:34:33;;;;;;;11.90;8.40;;;18.30;99.90;;;;;;4948110;28;20051;-69
2022/05/13 11:37:05;;;;;;;10.98;6.97;;;18.40;99.90;;;;;;4999975;28;20044;-74
2022/05/13 11:39:41;;;;;;;10.88;7.55;;;18.40;99.90;;;;;;5024848;28;20419;-71
2022/05/13 11:42:11;;;;;;;14.30;8.25;;;18.30;99.90;;;;;;5024584;28;20822;-70
2022/05/13 11:45:01;;;;;;;11.60;7.53;;;18.40;99.90;;;;;;5026725;28;20470;-72
2022/05/13 11:47:56;;;;;;;14.18;8.32;;;18.40;99.90;;;;;;5028672;28;20070;-71
2022/05/13 11:50:26;;;;;;;12.38;9.60;;;18.30;99.90;;;;;;5029518;28;20067;-72
2022/05/13 11:52:54;;;;;;;11.63;8.60;;;18.40;99.90;;;;;;5029794;28;20065;-73
2022/05/13 11:55:47;;;;;;;15.70;9.35;;;18.40;99.90;;;;;;5027770;28;20036;-72
2022/05/13 11:59:01;;;;;;;13.77;9.85;;;18.40;99.90;;;;;;5026283;28;20461;-71
2022/05/13 12:01:50;;;;;;;14.57;8.85;;;18.50;99.90;;;;;;4968081;28;20142;-75
2022/05/13 12:04:17;;;;;;;17.77;9.70;;;18.50;99.90;;;;;;4968118;28;20078;-72
2022/05/13 12:06:50;;;;;;;13.93;10.18;;;18.50;99.90;;;;;;4969113;28;20054;-72
2022/05/13 12:09:31;;;;;;;16.48;8.88;;;18.50;99.90;;;;;;4971672;28;20081;-74
2022/05/13 12:12:22;;;;;;;16.30;9.82;;;18.60;99.90;;;;;;4967229;28;20547;-72
2022/05/13 12:15:09;;;;;;;14.90;10.10;;;18.60;99.90;;;;;;4973009;28;20120;-72
2022/05/13 12:17:49;;;;;;;13.32;9.70;;;18.60;99.90;;;;;;4975028;28;20030;-71
2022/05/13 12:20:48;;;;;;;15.95;10.70;;;18.60;99.90;;;;;;4974574;28;20849;-73
2022/05/13 12:23:23;;;;;;;13.75;9.40;;;18.50;99.90;;;;;;4975412;28;20488;-73
2022/05/13 12:25:58;;;;;;;14.32;10.02;;;18.50;99.90;;;;;;4972173;28;20493;-74
2022/05/13 12:28:31;;;;;;;14.35;8.95;;;18.50;99.90;;;;;;4969720;28;20034;-71
2022/05/13 12:30:58;;;;;;;14.85;9.00;;;18.40;99.90;;;;;;4971241;28;20129;-71
2022/05/13 12:33:26;;;;;;;13.13;8.90;;;18.40;99.90;;;;;;4975336;28;20369;-70
2022/05/13 12:39:05;;;;;;;16.48;10.38;;;18.30;99.90;;;;;;5044144;28;20083;-69
2022/05/13 12:41:44;;;;;;;12.68;9.55;;;18.30;99.90;;;;;;5050375;28;20291;-72
2022/05/13 12:44:15;;;;;;;12.25;9.40;;;18.30;99.90;;;;;;5043275;28;20025;-74
2022/05/13 12:46:50;;;;;;;13.70;8.95;;;18.30;99.90;;;;;;5052056;28;20040;-74
2022/05/13 12:49:48;;;;;;;10.95;8.55;;;18.30;99.90;;;;;;5060264;28;20055;-73
2022/05/13 12:52:28;;;;;;;11.80;8.55;;;18.20;99.90;;;;;;5055988;28;20103;-73
2022/05/13 12:55:20;;;;;;;12.40;8.35;;;18.20;99.90;;;;;;5058530;28;20057;-72
2022/05/13 12:57:50;;;;;;;13.38;7.65;;;18.20;99.90;;;;;;5058810;28;20442;-73
2022/05/13 13:00:42;;;;;;;15.15;8.25;;;18.20;99.90;;;;;;5063239;28;20024;-72
2022/05/13 13:03:12;;;;;;;14.95;9.45;;;18.20;99.90;;;;;;5058038;28;20096;-70
2022/05/13 13:05:45;;;;;;;14.60;10.23;;;18.20;99.90;;;;;;5066845;28;20386;-74
2022/05/13 13:08:27;;;;;;;16.48;10.25;;;18.20;99.90;;;;;;5059300;28;20546;-73
2022/05/13 13:11:07;;;;;;;16.02;9.93;;;18.20;99.90;;;;;;5065323;28;20024;-72
2022/05/13 13:14:14;;;;;;;17.75;12.02;;;18.20;99.90;;;;;;5059153;28;20127;-72
2022/05/13 13:17:08;;;;;;;24.20;14.63;;;18.20;99.90;;;;;;5060577;28;20028;-75
2022/05/13 13:19:36;;;;;;;18.80;12.85;;;18.20;99.90;;;;;;5062006;28;20020;-72
2022/05/13 13:22:05;;;;;;;18.13;12.88;;;18.20;99.90;;;;;;5031071;28;20040;-73
2022/05/13 13:24:36;;;;;;;15.95;11.00;;;18.20;99.90;;;;;;5050981;28;20017;-71
2022/05/13 13:27:06;;;;;;;20.33;13.18;;;18.20;99.90;;;;;;5049414;28;20020;-71
2022/05/13 13:29:37;;;;;;;16.10;11.07;;;18.30;99.90;;;;;;5048223;28;20411;-74
2022/05/13 13:32:07;;;;;;;22.38;11.50;;;18.30;99.90;;;;;;5052269;28;20028;-70
2022/05/13 13:34:36;;;;;;;12.93;9.75;;;18.20;99.90;;;;;;5047864;28;20482;-76
2022/05/13 13:37:11;;;;;;;17.50;10.93;;;18.20;99.90;;;;;;5051435;28;20159;-74
2022/05/13 13:39:38;;;;;;;15.73;10.65;;;18.20;99.90;;;;;;5049949;28;20029;-73
2022/05/13 13:42:11;;;;;;;16.45;10.60;;;18.20;99.90;;;;;;5049702;28;20028;-67
2022/05/13 13:44:38;;;;;;;;;;;18.20;99.90;;;;;;5046175;28;20459;-73
2022/05/13 13:47:12;;;;;;;18.25;10.50;;;18.20;99.90;;;;;;5042950;28;19909;-72